Sea Cloud — 9HOM2 — position and weather

sailwx.info

Track history (hours):
 
Tides and Currents Weather Stations Pressure Air Temp Water Temp Dewpoint Dewpoint Depression Visibility Wind Speed Wind Dir Waves Ship Positions

Sea Cloud

Ship's website: http://www.seacloud.com/en/the-ships/sea-cloud.html

Last reported at 2019-Jul-22 05:23 UTC. Time now 2019-Jul-22 05:40 UTC.
Position N 37°56' E 023°38'.

Length 110 m; draft 5.3 m.

Type: Ship. MMSI: 256084000.

Date/timePositionNaut miles runAvg speedWind from/ knotsBaromVisibWave heightAir tempDewpointWater temp
2019-Jul-22 05:23N 37°56' E 023°38'0 0.0
2019-Jul-22 04:38N 37°56' E 023°38'0 0.0
2019-Jul-22 04:29N 37°56' E 023°38'0 0.0
2019-Jul-22 03:59N 37°56' E 023°38'0 0.0
2019-Jul-22 03:29N 37°56' E 023°38'0 0.0
2019-Jul-22 02:53N 37°56' E 023°38'0 0.0
2019-Jul-22 02:23N 37°56' E 023°38'0 0.0
2019-Jul-22 01:59N 37°56' E 023°38'1 1.5
2019-Jul-22 01:31N 37°56' E 023°37'3 5.8
2019-Jul-22 01:00N 37°53' E 023°37'3 6.8
2019-Jul-22 00:30N 37°50' E 023°40'4 7.2
2019-Jul-22 00:00N 37°47' E 023°41'4 7.8
2019-Jul-21 23:30N 37°44' E 023°44'4 7.3
2019-Jul-21 23:00N 37°41' E 023°46'10 7.0
2019-Jul-21 21:34N 37°32' E 023°53'4 7.4
2019-Jul-21 21:01N 37°31' E 023°48'0 7.5
2019-Jul-21 20:58N 37°31' E 023°47'4 7.4
2019-Jul-21 20:25N 37°29' E 023°43'3 7.4
2019-Jul-21 20:00N 37°28' E 023°39'4 7.4
2019-Jul-21 19:24N 37°25' E 023°35'3 6.7
2019-Jul-21 19:00N 37°24' E 023°32'4 6.9
2019-Jul-21 18:29N 37°22' E 023°28'4 7.2
2019-Jul-21 17:55N 37°20' E 023°24'9 6.9
2019-Jul-21 16:40N 37°17' E 023°13'1 6.6
2019-Jul-21 16:28N 37°17' E 023°12'4 6.6
2019-Jul-21 15:50N 37°18' E 023°07'3 7.1
2019-Jul-21 15:24N 37°18' E 023°03'3 0.2
2019-Jul-21 01:54N 37°18' E 022°59'13 2.8
2019-Jul-20 21:14N 37°08' E 023°10'1 0.9
2019-Jul-20 20:34N 37°07' E 023°10'0 0.9
2019-Jul-20 20:07N 37°07' E 023°10'1 0.9
2019-Jul-20 19:35N 37°06' E 023°10'0 1.0
2019-Jul-20 19:12N 37°06' E 023°10'0 1.0
2019-Jul-20 18:45N 37°06' E 023°10'2 1.6
2019-Jul-20 17:38N 37°04' E 023°11'  
Track history (hours):
 
Tides and Currents Weather Stations Pressure Air Temp Water Temp Dewpoint Dewpoint Depression Visibility Wind Speed Wind Dir Waves Ship Positions

Sea Cloud

Ship's website: http://www.seacloud.com/en/the-ships/sea-cloud.html

Last reported at 2019-Jul-22 05:23 UTC. Time now 2019-Jul-22 05:40 UTC.
Position N 37°56' E 023°38'.

Length 110 m; draft 5.3 m.

Type: Ship. MMSI: 256084000.

Date/timePositionNaut miles runAvg speedWind from/ knotsBaromVisibWave heightAir tempDewpointWater temp
2019-Jul-22 05:23N 37°56' E 023°38'0 0.0
2019-Jul-22 04:38N 37°56' E 023°38'0 0.0
2019-Jul-22 04:29N 37°56' E 023°38'0 0.0
2019-Jul-22 03:59N 37°56' E 023°38'0 0.0
2019-Jul-22 03:29N 37°56' E 023°38'0 0.0
2019-Jul-22 02:53N 37°56' E 023°38'0 0.0
2019-Jul-22 02:23N 37°56' E 023°38'0 0.0
2019-Jul-22 01:59N 37°56' E 023°38'1 1.5
2019-Jul-22 01:31N 37°56' E 023°37'3 5.8
2019-Jul-22 01:00N 37°53' E 023°37'3 6.8
2019-Jul-22 00:30N 37°50' E 023°40'4 7.2
2019-Jul-22 00:00N 37°47' E 023°41'4 7.8
2019-Jul-21 23:30N 37°44' E 023°44'4 7.3
2019-Jul-21 23:00N 37°41' E 023°46'10 7.0
2019-Jul-21 21:34N 37°32' E 023°53'4 7.4
2019-Jul-21 21:01N 37°31' E 023°48'0 7.5
2019-Jul-21 20:58N 37°31' E 023°47'4 7.4
2019-Jul-21 20:25N 37°29' E 023°43'3 7.4
2019-Jul-21 20:00N 37°28' E 023°39'4 7.4
2019-Jul-21 19:24N 37°25' E 023°35'3 6.7
2019-Jul-21 19:00N 37°24' E 023°32'4 6.9
2019-Jul-21 18:29N 37°22' E 023°28'4 7.2
2019-Jul-21 17:55N 37°20' E 023°24'9 6.9
2019-Jul-21 16:40N 37°17' E 023°13'1 6.6
2019-Jul-21 16:28N 37°17' E 023°12'4 6.6
2019-Jul-21 15:50N 37°18' E 023°07'3 7.1
2019-Jul-21 15:24N 37°18' E 023°03'3 0.2
2019-Jul-21 01:54N 37°18' E 022°59'13 2.8
2019-Jul-20 21:14N 37°08' E 023°10'1 0.9
2019-Jul-20 20:34N 37°07' E 023°10'0 0.9
2019-Jul-20 20:07N 37°07' E 023°10'1 0.9
2019-Jul-20 19:35N 37°06' E 023°10'0 1.0
2019-Jul-20 19:12N 37°06' E 023°10'0 1.0
2019-Jul-20 18:45N 37°06' E 023°10'2 1.6
2019-Jul-20 17:38N 37°04' E 023°11'  

Dump ship's entire track history